createdAt,value
2023-04-17T00:01:37.673Z,100782.92
2023-04-17T00:06:43.657Z,100786.33
2023-04-17T00:11:45.211Z,100778.58
2023-04-17T00:16:47.044Z,100780.84
2023-04-17T00:21:48.882Z,100784.66
2023-04-17T00:26:50.826Z,100782.70
2023-04-17T00:31:52.454Z,100786.51
2023-04-17T00:36:54.015Z,100789.19
2023-04-17T00:41:56.500Z,100792.41
2023-04-17T00:46:57.984Z,100798.79
2023-04-17T00:51:59.764Z,100795.36
2023-04-17T00:57:02.841Z,100799.27
2023-04-17T01:02:04.877Z,100797.90
2023-04-17T01:07:06.555Z,100801.61
2023-04-17T01:12:18.170Z,100802.39
2023-04-17T01:17:20.671Z,100799.08
2023-04-17T01:22:22.332Z,100799.08
2023-04-17T01:27:25.000Z,100801.13
2023-04-17T01:32:27.151Z,100800.88
2023-04-17T01:37:28.636Z,100795.99
2023-04-17T01:42:30.291Z,100801.38
2023-04-17T01:47:31.872Z,100795.96
2023-04-17T01:52:33.352Z,100794.30
2023-04-17T01:57:34.924Z,100794.35
2023-04-17T02:02:36.574Z,100796.80
2023-04-17T02:07:38.245Z,100797.70
2023-04-17T02:12:39.833Z,100797.25
2023-04-17T02:17:41.340Z,100805.16
2023-04-17T02:22:43.002Z,100805.20
2023-04-17T02:27:44.537Z,100805.58
2023-04-17T02:32:46.361Z,100806.98
2023-04-17T02:37:48.116Z,100805.46
2023-04-17T02:42:49.597Z,100811.80
2023-04-17T02:47:51.130Z,100816.94
2023-04-17T02:52:52.774Z,100815.91
2023-04-17T02:57:54.308Z,100818.66
2023-04-17T03:02:56.198Z,100814.21
2023-04-17T03:07:59.377Z,100814.39
2023-04-17T03:13:00.928Z,100812.02
2023-04-17T03:18:02.436Z,100820.95
2023-04-17T03:23:04.064Z,100816.35
2023-04-17T03:28:05.567Z,100819.27
2023-04-17T03:33:07.097Z,100826.46
2023-04-17T03:38:08.818Z,100825.27
2023-04-17T03:43:10.569Z,100829.90
2023-04-17T03:48:12.247Z,100836.57
2023-04-17T03:53:15.837Z,100841.71
2023-04-17T03:58:17.285Z,100849.59
2023-04-17T04:03:18.973Z,100850.27
2023-04-17T04:08:21.350Z,100856.92
2023-04-17T04:13:22.869Z,100855.19
2023-04-17T04:18:24.561Z,100861.35
2023-04-17T04:23:28.002Z,100866.30
2023-04-17T04:28:30.379Z,100870.04
2023-04-17T04:33:31.849Z,100875.16
2023-04-17T04:38:33.422Z,100872.55
2023-04-17T04:43:34.996Z,100877.11
2023-04-17T04:48:36.556Z,100880.35
2023-04-17T04:53:38.016Z,100884.92
2023-04-17T04:58:39.578Z,100882.15
2023-04-17T05:03:41.132Z,100885.72
2023-04-17T05:08:42.820Z,100895.45
2023-04-17T05:13:44.338Z,100896.59
2023-04-17T05:18:48.084Z,100894.13
2023-04-17T05:23:49.708Z,100901.20
2023-04-17T05:28:51.251Z,100897.57
2023-04-17T05:33:56.976Z,100902.30
2023-04-17T05:38:58.700Z,100905.30
2023-04-17T05:44:00.289Z,100909.92
2023-04-17T05:49:01.777Z,100910.46
2023-04-17T05:54:03.465Z,100907.68
2023-04-17T05:59:05.104Z,100904.97
2023-04-17T06:04:06.826Z,100906.11
2023-04-17T06:09:09.818Z,100909.46
2023-04-17T06:14:11.536Z,100910.50
2023-04-17T06:19:13.263Z,100913.28
2023-04-17T06:24:14.989Z,100912.10
2023-04-17T06:29:16.572Z,100913.52
2023-04-17T06:34:18.051Z,100919.89
2023-04-17T06:39:19.580Z,100916.83
2023-04-17T06:44:21.141Z,100913.73
2023-04-17T06:49:22.639Z,100920.60
2023-04-17T06:54:24.563Z,100921.67
2023-04-17T06:59:26.298Z,100927.62
2023-04-17T07:04:27.839Z,100932.34
2023-04-17T07:09:29.336Z,100939.66
2023-04-17T07:14:30.892Z,100945.77
2023-04-17T07:19:35.997Z,100948.13
2023-04-17T07:24:37.507Z,100951.77
2023-04-17T07:29:39.083Z,100953.65
2023-04-17T07:34:42.033Z,100959.00
2023-04-17T07:39:43.523Z,100965.56
2023-04-17T07:44:46.372Z,100968.56
2023-04-17T07:49:49.242Z,100973.86
2023-04-17T07:54:51.262Z,100974.70
2023-04-17T07:59:54.285Z,100978.61
2023-04-17T08:04:56.726Z,100979.48
2023-04-17T08:09:58.310Z,100983.84
2023-04-17T08:14:59.806Z,100982.25
2023-04-17T08:20:11.548Z,100982.98
2023-04-17T08:25:14.337Z,100987.91
2023-04-17T08:30:23.458Z,100994.92
2023-04-17T08:35:26.652Z,101002.52
2023-04-17T08:40:28.156Z,101007.26
2023-04-17T08:45:30.544Z,101012.56
2023-04-17T08:50:32.861Z,101012.05
2023-04-17T08:55:34.420Z,101011.06
2023-04-17T09:00:46.468Z,101010.61
2023-04-17T09:05:48.682Z,101018.67
2023-04-17T09:10:54.282Z,101019.88
2023-04-17T09:16:06.759Z,101018.22
2023-04-17T09:21:09.636Z,101022.77
2023-04-17T09:26:13.639Z,101020.48
2023-04-17T09:31:26.403Z,101012.53
2023-04-17T09:36:33.097Z,101013.02
2023-04-17T09:41:39.528Z,101014.10
2023-04-17T09:46:46.034Z,101012.30
2023-04-17T09:51:49.356Z,101008.59
2023-04-17T09:56:55.728Z,101005.45
2023-04-17T10:01:57.943Z,100999.29
2023-04-17T10:06:59.660Z,100995.70
2023-04-17T10:12:04.349Z,100994.08
2023-04-17T10:17:31.632Z,100996.11
2023-04-17T10:22:34.842Z,100994.44
2023-04-17T10:27:36.315Z,100991.27
2023-04-17T10:32:38.008Z,100995.35
2023-04-17T10:37:51.686Z,100990.58
2023-04-17T10:43:15.251Z,100988.03
2023-04-17T10:48:31.137Z,100990.14
2023-04-17T10:53:49.729Z,100986.73
2023-04-17T10:59:01.933Z,100984.62
2023-04-17T11:04:04.358Z,100988.51
2023-04-17T11:09:11.019Z,100988.43
2023-04-17T11:14:15.099Z,100990.63
2023-04-17T11:19:21.695Z,100989.61
2023-04-17T11:24:31.161Z,100992.20
2023-04-17T11:29:32.684Z,100992.27
2023-04-17T11:34:34.638Z,100996.56
2023-04-17T11:39:36.325Z,100996.42
2023-04-17T11:44:44.575Z,100997.97
2023-04-17T11:49:47.014Z,100999.09
2023-04-17T11:54:48.521Z,101002.96
2023-04-17T11:59:50.108Z,101000.65
2023-04-17T12:04:52.155Z,101005.90
2023-04-17T12:09:57.826Z,101008.30
2023-04-17T12:14:59.579Z,101011.20
2023-04-17T12:20:04.108Z,101014.13
2023-04-17T12:25:06.504Z,101018.06
2023-04-17T12:30:08.884Z,101020.77
2023-04-17T12:35:10.725Z,101026.02
2023-04-17T12:40:12.257Z,101025.22
2023-04-17T12:45:15.342Z,101029.92
2023-04-17T12:50:16.931Z,101034.27
2023-04-17T12:55:18.523Z,101043.86
2023-04-17T13:00:26.954Z,101043.08
2023-04-17T13:05:29.518Z,101046.80
2023-04-17T13:10:31.613Z,101047.03
2023-04-17T13:15:33.297Z,101049.95
2023-04-17T13:20:34.838Z,101049.73
2023-04-17T13:25:37.301Z,101049.77
2023-04-17T13:30:42.031Z,101046.27
2023-04-17T13:35:43.574Z,101047.54
2023-04-17T13:40:45.126Z,101049.27
2023-04-17T13:45:46.689Z,101049.20
2023-04-17T13:50:48.236Z,101048.30
2023-04-17T13:55:50.922Z,101050.78
2023-04-17T14:00:52.519Z,101047.34
2023-04-17T14:05:54.056Z,101045.64
2023-04-17T14:10:55.778Z,101045.15
2023-04-17T14:15:57.375Z,101048.32
2023-04-17T14:20:59.082Z,101050.14
2023-04-17T14:26:00.611Z,101048.91
2023-04-17T14:31:02.218Z,101049.86
2023-04-17T14:36:05.919Z,101043.64
2023-04-17T14:41:08.283Z,101042.96
2023-04-17T14:46:09.914Z,101040.59
2023-04-17T14:51:14.354Z,101042.51
2023-04-17T14:56:16.178Z,101034.64
2023-04-17T15:01:18.008Z,101039.45
2023-04-17T15:06:20.020Z,101040.61
2023-04-17T15:11:21.494Z,101040.27
2023-04-17T15:16:23.031Z,101037.48
2023-04-17T15:21:24.628Z,101043.14
2023-04-17T15:26:27.356Z,101038.20
2023-04-17T15:31:29.013Z,101034.46
2023-04-17T15:36:31.627Z,101031.42
2023-04-17T15:41:34.365Z,101032.79
2023-04-17T15:46:36.036Z,101029.56
2023-04-17T15:51:39.022Z,101033.20
2023-04-17T15:56:42.507Z,101034.17
2023-04-17T16:01:44.087Z,101040.69
2023-04-17T16:06:46.239Z,101043.90
2023-04-17T16:11:48.537Z,101042.17
2023-04-17T16:16:50.110Z,101046.66
2023-04-17T16:21:51.572Z,101052.80
2023-04-17T16:26:58.282Z,101056.54
2023-04-17T16:32:00.149Z,101060.91
2023-04-17T16:37:03.355Z,101065.55
2023-04-17T16:42:04.823Z,101067.84
2023-04-17T16:47:13.285Z,101065.45
2023-04-17T16:52:16.031Z,101071.85
2023-04-17T16:57:17.536Z,101079.45
2023-04-17T17:02:19.083Z,101083.25
2023-04-17T17:07:20.694Z,101089.98
2023-04-17T17:12:22.434Z,101087.88
2023-04-17T17:17:23.969Z,101101.94
2023-04-17T17:22:25.805Z,101102.93
2023-04-17T17:27:27.305Z,101106.84
2023-04-17T17:32:28.886Z,101112.83
2023-04-17T17:37:30.655Z,101114.14
2023-04-17T17:42:32.204Z,101125.23
2023-04-17T17:47:33.742Z,101130.95
2023-04-17T17:52:35.372Z,101135.10
2023-04-17T17:57:48.915Z,101134.83
2023-04-17T18:02:51.225Z,101139.73
2023-04-17T18:07:52.983Z,101137.59
2023-04-17T18:12:54.498Z,101140.77
2023-04-17T18:17:56.113Z,101147.02
2023-04-17T18:22:57.771Z,101149.16
2023-04-17T18:27:59.240Z,101146.30
2023-04-17T18:33:00.919Z,101150.46
2023-04-17T18:38:02.658Z,101155.16
2023-04-17T18:43:05.895Z,101156.27
2023-04-17T18:48:08.725Z,101158.71
2023-04-17T18:53:10.502Z,101160.09
2023-04-17T18:58:12.112Z,101168.39
2023-04-17T19:03:13.605Z,101166.36
2023-04-17T19:08:15.254Z,101172.09
2023-04-17T19:13:16.896Z,101168.90
2023-04-17T19:18:18.368Z,101165.36
2023-04-17T19:23:19.848Z,101165.91
2023-04-17T19:28:25.162Z,101165.47
2023-04-17T19:33:26.630Z,101166.73
2023-04-17T19:38:29.315Z,101171.58
2023-04-17T19:43:31.379Z,101172.14
2023-04-17T19:48:32.885Z,101180.61
2023-04-17T19:53:36.192Z,101179.96
2023-04-17T19:58:38.629Z,101179.81
2023-04-17T20:03:42.282Z,101179.16
2023-04-17T20:08:44.046Z,101172.30
2023-04-17T20:13:46.603Z,101175.73
2023-04-17T20:18:49.752Z,101176.43
2023-04-17T20:23:51.325Z,101174.04
2023-04-17T20:28:54.804Z,101172.67
2023-04-17T20:33:56.504Z,101169.44
2023-04-17T20:38:58.008Z,101172.89
2023-04-17T20:44:00.765Z,101175.65
2023-04-17T20:49:02.573Z,101177.20
2023-04-17T20:54:04.226Z,101180.80
2023-04-17T20:59:05.867Z,101180.99
2023-04-17T21:04:10.919Z,101182.21
2023-04-17T21:09:14.242Z,101177.94
2023-04-17T21:14:16.184Z,101180.88
2023-04-17T21:19:17.848Z,101183.63
2023-04-17T21:24:19.747Z,101191.02
2023-04-17T21:29:21.196Z,101191.73
2023-04-17T21:34:24.321Z,101191.05
2023-04-17T21:39:25.807Z,101195.71
2023-04-17T21:44:27.648Z,101191.61
2023-04-17T21:49:29.148Z,101193.85
2023-04-17T21:54:30.811Z,101190.08
2023-04-17T21:59:32.352Z,101188.37
2023-04-17T22:04:33.955Z,101191.14
2023-04-17T22:09:35.486Z,101189.76
2023-04-17T22:14:36.957Z,101185.98
2023-04-17T22:19:38.432Z,101189.79
2023-04-17T22:24:41.521Z,101191.52
2023-04-17T22:29:42.993Z,101194.95
2023-04-17T22:34:48.830Z,101191.88
2023-04-17T22:39:50.487Z,101194.14
2023-04-17T22:44:52.064Z,101199.13
2023-04-17T22:49:53.890Z,101201.39
2023-04-17T22:54:55.758Z,101200.04
2023-04-17T22:59:57.244Z,101202.62
2023-04-17T23:04:58.761Z,101197.79
2023-04-17T23:10:00.551Z,101193.34
2023-04-17T23:15:02.480Z,101189.23
2023-04-17T23:20:04.752Z,101193.20
2023-04-17T23:25:07.160Z,101189.24
2023-04-17T23:30:09.375Z,101187.19
2023-04-17T23:35:11.139Z,101183.42
2023-04-17T23:40:13.355Z,101184.80
2023-04-17T23:45:16.293Z,101185.66
2023-04-17T23:50:19.857Z,101184.13
2023-04-17T23:55:27.130Z,101180.87
